sensor_id;sensor_type;location;lat;lon;timestamp;P1;durP1;ratioP1;P2;durP2;ratioP2
62997;SDS011;55949;52.590;7.330;2023-05-14T00:00:49;37.95;;;35.85;;
62997;SDS011;55949;52.590;7.330;2023-05-14T00:01:50;27.08;;;25.17;;
62997;SDS011;55949;52.590;7.330;2023-05-14T00:02:51;25.15;;;23.58;;
62997;SDS011;55949;52.590;7.330;2023-05-14T00:03:51;15.05;;;13.70;;
62997;SDS011;55949;52.590;7.330;2023-05-14T00:04:52;13.70;;;12.50;;
62997;SDS011;55949;52.590;7.330;2023-05-14T00:05:53;18.15;;;16.52;;
62997;SDS011;55949;52.590;7.330;2023-05-14T00:06:53;16.60;;;14.95;;
62997;SDS011;55949;52.590;7.330;2023-05-14T00:07:54;17.27;;;15.75;;
62997;SDS011;55949;52.590;7.330;2023-05-14T00:08:55;17.40;;;15.73;;
62997;SDS011;55949;52.590;7.330;2023-05-14T00:09:56;16.67;;;15.38;;
62997;SDS011;55949;52.590;7.330;2023-05-14T00:10:58;19.63;;;17.98;;
62997;SDS011;55949;52.590;7.330;2023-05-14T00:11:58;18.63;;;17.05;;
62997;SDS011;55949;52.590;7.330;2023-05-14T00:12:59;16.50;;;15.30;;
62997;SDS011;55949;52.590;7.330;2023-05-14T00:14:00;17.00;;;15.52;;
62997;SDS011;55949;52.590;7.330;2023-05-14T00:15:01;18.77;;;17.27;;
62997;SDS011;55949;52.590;7.330;2023-05-14T00:16:01;16.60;;;14.95;;
62997;SDS011;55949;52.590;7.330;2023-05-14T00:17:02;14.10;;;12.15;;
62997;SDS011;55949;52.590;7.330;2023-05-14T00:18:03;15.13;;;13.60;;
62997;SDS011;55949;52.590;7.330;2023-05-14T00:19:04;16.02;;;14.43;;
62997;SDS011;55949;52.590;7.330;2023-05-14T00:20:05;16.42;;;14.88;;
62997;SDS011;55949;52.590;7.330;2023-05-14T00:21:06;16.40;;;14.80;;
62997;SDS011;55949;52.590;7.330;2023-05-14T00:22:07;15.07;;;13.55;;
62997;SDS011;55949;52.590;7.330;2023-05-14T00:23:08;15.38;;;14.07;;
62997;SDS011;55949;52.590;7.330;2023-05-14T00:24:09;16.27;;;14.73;;
62997;SDS011;55949;52.590;7.330;2023-05-14T00:25:10;15.68;;;12.80;;
62997;SDS011;55949;52.590;7.330;2023-05-14T00:26:10;15.57;;;14.18;;
62997;SDS011;55949;52.590;7.330;2023-05-14T00:27:11;15.88;;;14.48;;
62997;SDS011;55949;52.590;7.330;2023-05-14T00:28:12;16.08;;;14.25;;
62997;SDS011;55949;52.590;7.330;2023-05-14T00:29:13;16.33;;;14.82;;
62997;SDS011;55949;52.590;7.330;2023-05-14T00:30:13;16.48;;;14.88;;
62997;SDS011;55949;52.590;7.330;2023-05-14T00:31:14;19.95;;;18.13;;
62997;SDS011;55949;52.590;7.330;2023-05-14T00:32:15;18.58;;;17.00;;
62997;SDS011;55949;52.590;7.330;2023-05-14T00:33:15;18.75;;;16.90;;
62997;SDS011;55949;52.590;7.330;2023-05-14T00:34:16;18.20;;;16.48;;
62997;SDS011;55949;52.590;7.330;2023-05-14T00:35:17;18.42;;;16.73;;
62997;SDS011;55949;52.590;7.330;2023-05-14T00:36:19;18.00;;;16.23;;
62997;SDS011;55949;52.590;7.330;2023-05-14T00:37:20;20.08;;;18.05;;
62997;SDS011;55949;52.590;7.330;2023-05-14T00:38:21;19.00;;;17.02;;
62997;SDS011;55949;52.590;7.330;2023-05-14T00:39:23;20.45;;;18.67;;
62997;SDS011;55949;52.590;7.330;2023-05-14T00:40:24;25.50;;;23.35;;
62997;SDS011;55949;52.590;7.330;2023-05-14T00:41:26;28.30;;;26.08;;
62997;SDS011;55949;52.590;7.330;2023-05-14T00:42:27;27.20;;;25.13;;
62997;SDS011;55949;52.590;7.330;2023-05-14T00:43:27;28.13;;;26.02;;
62997;SDS011;55949;52.590;7.330;2023-05-14T00:44:28;27.52;;;25.63;;
62997;SDS011;55949;52.590;7.330;2023-05-14T00:45:29;26.85;;;24.90;;
62997;SDS011;55949;52.590;7.330;2023-05-14T00:46:30;25.25;;;23.33;;
62997;SDS011;55949;52.590;7.330;2023-05-14T00:47:30;24.67;;;22.77;;
62997;SDS011;55949;52.590;7.330;2023-05-14T00:48:33;29.50;;;26.95;;
62997;SDS011;55949;52.590;7.330;2023-05-14T00:49:34;27.25;;;25.05;;
62997;SDS011;55949;52.590;7.330;2023-05-14T00:50:35;28.83;;;26.73;;
62997;SDS011;55949;52.590;7.330;2023-05-14T00:51:36;27.98;;;25.75;;
62997;SDS011;55949;52.590;7.330;2023-05-14T00:52:37;27.80;;;25.77;;
62997;SDS011;55949;52.590;7.330;2023-05-14T00:53:38;26.55;;;24.70;;
62997;SDS011;55949;52.590;7.330;2023-05-14T00:54:39;26.25;;;24.15;;
62997;SDS011;55949;52.590;7.330;2023-05-14T00:55:40;23.27;;;21.58;;
62997;SDS011;55949;52.590;7.330;2023-05-14T00:56:42;26.45;;;24.48;;
62997;SDS011;55949;52.590;7.330;2023-05-14T00:57:44;24.15;;;22.25;;
62997;SDS011;55949;52.590;7.330;2023-05-14T00:58:45;22.63;;;20.90;;
62997;SDS011;55949;52.590;7.330;2023-05-14T00:59:46;25.40;;;23.17;;
62997;SDS011;55949;52.590;7.330;2023-05-14T01:00:47;23.95;;;22.05;;
62997;SDS011;55949;52.590;7.330;2023-05-14T01:01:47;25.50;;;23.17;;
62997;SDS011;55949;52.590;7.330;2023-05-14T01:02:48;27.15;;;25.00;;
62997;SDS011;55949;52.590;7.330;2023-05-14T01:03:49;28.83;;;26.58;;
62997;SDS011;55949;52.590;7.330;2023-05-14T01:04:52;26.08;;;24.17;;
62997;SDS011;55949;52.590;7.330;2023-05-14T01:07:29;26.75;;;24.77;;
62997;SDS011;55949;52.590;7.330;2023-05-14T01:08:52;27.35;;;25.05;;
62997;SDS011;55949;52.590;7.330;2023-05-14T01:10:08;26.10;;;23.67;;
62997;SDS011;55949;52.590;7.330;2023-05-14T01:11:16;25.33;;;23.25;;
62997;SDS011;55949;52.590;7.330;2023-05-14T01:15:25;22.60;;;20.70;;
62997;SDS011;55949;52.590;7.330;2023-05-14T01:16:29;21.75;;;20.05;;
62997;SDS011;55949;52.590;7.330;2023-05-14T01:17:32;21.27;;;19.50;;
62997;SDS011;55949;52.590;7.330;2023-05-14T01:18:47;19.95;;;18.20;;
62997;SDS011;55949;52.590;7.330;2023-05-14T01:19:51;17.75;;;16.15;;
62997;SDS011;55949;52.590;7.330;2023-05-14T01:20:54;16.67;;;14.95;;
62997;SDS011;55949;52.590;7.330;2023-05-14T01:21:55;15.73;;;14.15;;
62997;SDS011;55949;52.590;7.330;2023-05-14T01:22:55;15.98;;;14.30;;
62997;SDS011;55949;52.590;7.330;2023-05-14T01:23:56;15.10;;;13.55;;
62997;SDS011;55949;52.590;7.330;2023-05-14T01:24:56;16.65;;;14.85;;
62997;SDS011;55949;52.590;7.330;2023-05-14T01:25:57;20.98;;;18.90;;
62997;SDS011;55949;52.590;7.330;2023-05-14T01:28:27;20.50;;;18.70;;
62997;SDS011;55949;52.590;7.330;2023-05-14T01:29:31;21.98;;;20.33;;
62997;SDS011;55949;52.590;7.330;2023-05-14T01:30:36;21.58;;;19.77;;
62997;SDS011;55949;52.590;7.330;2023-05-14T01:31:49;19.38;;;17.83;;
62997;SDS011;55949;52.590;7.330;2023-05-14T01:32:53;21.85;;;19.75;;
62997;SDS011;55949;52.590;7.330;2023-05-14T01:33:57;16.77;;;15.15;;
62997;SDS011;55949;52.590;7.330;2023-05-14T01:34:59;18.25;;;14.45;;
62997;SDS011;55949;52.590;7.330;2023-05-14T01:36:00;18.10;;;16.23;;
62997;SDS011;55949;52.590;7.330;2023-05-14T01:37:02;16.08;;;14.50;;
62997;SDS011;55949;52.590;7.330;2023-05-14T01:38:05;14.77;;;13.48;;
62997;SDS011;55949;52.590;7.330;2023-05-14T01:39:08;15.52;;;14.02;;
62997;SDS011;55949;52.590;7.330;2023-05-14T01:40:11;16.83;;;15.13;;
62997;SDS011;55949;52.590;7.330;2023-05-14T01:41:12;16.80;;;15.10;;
62997;SDS011;55949;52.590;7.330;2023-05-14T01:42:14;17.33;;;15.50;;
62997;SDS011;55949;52.590;7.330;2023-05-14T01:43:15;19.35;;;15.35;;
62997;SDS011;55949;52.590;7.330;2023-05-14T01:44:17;17.30;;;15.52;;
62997;SDS011;55949;52.590;7.330;2023-05-14T01:45:19;17.50;;;16.05;;
62997;SDS011;55949;52.590;7.330;2023-05-14T01:46:20;16.67;;;15.18;;
62997;SDS011;55949;52.590;7.330;2023-05-14T01:47:23;18.13;;;16.38;;
62997;SDS011;55949;52.590;7.330;2023-05-14T01:48:24;17.67;;;15.85;;
62997;SDS011;55949;52.590;7.330;2023-05-14T01:49:24;17.60;;;15.63;;
62997;SDS011;55949;52.590;7.330;2023-05-14T01:50:25;18.73;;;17.02;;
62997;SDS011;55949;52.590;7.330;2023-05-14T01:51:26;17.77;;;16.20;;
62997;SDS011;55949;52.590;7.330;2023-05-14T01:52:26;18.00;;;16.50;;
62997;SDS011;55949;52.590;7.330;2023-05-14T01:53:27;18.50;;;16.80;;
62997;SDS011;55949;52.590;7.330;2023-05-14T01:54:28;19.58;;;17.30;;
62997;SDS011;55949;52.590;7.330;2023-05-14T01:55:28;19.30;;;17.25;;
62997;SDS011;55949;52.590;7.330;2023-05-14T01:56:29;20.08;;;18.25;;
62997;SDS011;55949;52.590;7.330;2023-05-14T01:57:30;21.50;;;19.42;;
62997;SDS011;55949;52.590;7.330;2023-05-14T01:58:31;20.02;;;18.23;;
62997;SDS011;55949;52.590;7.330;2023-05-14T01:59:31;18.75;;;17.02;;
62997;SDS011;55949;52.590;7.330;2023-05-14T02:00:32;17.73;;;15.75;;
62997;SDS011;55949;52.590;7.330;2023-05-14T02:01:33;19.15;;;17.15;;
62997;SDS011;55949;52.590;7.330;2023-05-14T02:02:33;19.13;;;17.23;;
62997;SDS011;55949;52.590;7.330;2023-05-14T02:03:34;18.58;;;16.58;;
62997;SDS011;55949;52.590;7.330;2023-05-14T02:04:35;18.33;;;16.73;;
62997;SDS011;55949;52.590;7.330;2023-05-14T02:05:35;18.40;;;16.52;;
62997;SDS011;55949;52.590;7.330;2023-05-14T02:06:36;18.10;;;16.00;;
62997;SDS011;55949;52.590;7.330;2023-05-14T02:07:37;17.63;;;15.85;;
62997;SDS011;55949;52.590;7.330;2023-05-14T02:08:37;17.92;;;16.20;;
62997;SDS011;55949;52.590;7.330;2023-05-14T02:09:39;18.70;;;16.90;;
62997;SDS011;55949;52.590;7.330;2023-05-14T02:10:40;20.55;;;17.67;;
62997;SDS011;55949;52.590;7.330;2023-05-14T02:11:40;19.10;;;17.33;;
62997;SDS011;55949;52.590;7.330;2023-05-14T02:12:41;19.30;;;17.60;;
62997;SDS011;55949;52.590;7.330;2023-05-14T02:13:42;18.95;;;17.05;;
62997;SDS011;55949;52.590;7.330;2023-05-14T02:14:42;19.23;;;17.33;;
62997;SDS011;55949;52.590;7.330;2023-05-14T02:15:43;20.10;;;18.10;;
62997;SDS011;55949;52.590;7.330;2023-05-14T02:16:44;19.98;;;18.20;;
62997;SDS011;55949;52.590;7.330;2023-05-14T02:17:44;20.42;;;18.67;;
62997;SDS011;55949;52.590;7.330;2023-05-14T02:18:45;21.52;;;19.63;;
62997;SDS011;55949;52.590;7.330;2023-05-14T02:19:46;21.98;;;19.88;;
62997;SDS011;55949;52.590;7.330;2023-05-14T02:20:46;21.70;;;19.83;;
62997;SDS011;55949;52.590;7.330;2023-05-14T02:21:47;20.77;;;18.77;;
62997;SDS011;55949;52.590;7.330;2023-05-14T02:22:48;19.95;;;18.05;;
62997;SDS011;55949;52.590;7.330;2023-05-14T02:23:48;20.27;;;18.52;;
62997;SDS011;55949;52.590;7.330;2023-05-14T02:24:50;20.85;;;18.88;;
62997;SDS011;55949;52.590;7.330;2023-05-14T02:25:50;20.27;;;18.45;;
62997;SDS011;55949;52.590;7.330;2023-05-14T02:26:51;20.60;;;18.45;;
62997;SDS011;55949;52.590;7.330;2023-05-14T02:27:52;21.50;;;19.38;;
62997;SDS011;55949;52.590;7.330;2023-05-14T02:28:52;23.15;;;20.95;;
62997;SDS011;55949;52.590;7.330;2023-05-14T02:29:53;20.38;;;18.55;;
62997;SDS011;55949;52.590;7.330;2023-05-14T02:30:58;20.80;;;18.90;;
62997;SDS011;55949;52.590;7.330;2023-05-14T02:32:02;19.80;;;17.77;;
62997;SDS011;55949;52.590;7.330;2023-05-14T02:33:02;20.13;;;18.23;;
62997;SDS011;55949;52.590;7.330;2023-05-14T02:34:04;19.90;;;16.77;;
62997;SDS011;55949;52.590;7.330;2023-05-14T02:35:07;19.48;;;17.58;;
62997;SDS011;55949;52.590;7.330;2023-05-14T02:36:08;20.25;;;18.08;;
62997;SDS011;55949;52.590;7.330;2023-05-14T02:37:09;21.45;;;18.38;;
62997;SDS011;55949;52.590;7.330;2023-05-14T02:38:10;22.67;;;19.40;;
62997;SDS011;55949;52.590;7.330;2023-05-14T02:39:11;21.05;;;18.17;;
62997;SDS011;55949;52.590;7.330;2023-05-14T02:40:11;19.70;;;17.90;;
62997;SDS011;55949;52.590;7.330;2023-05-14T02:41:12;23.23;;;19.65;;
62997;SDS011;55949;52.590;7.330;2023-05-14T02:42:13;20.20;;;18.30;;
62997;SDS011;55949;52.590;7.330;2023-05-14T02:43:13;20.88;;;18.80;;
62997;SDS011;55949;52.590;7.330;2023-05-14T02:44:14;23.67;;;21.48;;
62997;SDS011;55949;52.590;7.330;2023-05-14T02:45:15;25.25;;;22.67;;
62997;SDS011;55949;52.590;7.330;2023-05-14T02:46:15;22.55;;;20.55;;
62997;SDS011;55949;52.590;7.330;2023-05-14T02:47:16;26.98;;;24.50;;
62997;SDS011;55949;52.590;7.330;2023-05-14T02:48:17;28.92;;;26.27;;
62997;SDS011;55949;52.590;7.330;2023-05-14T02:49:18;31.90;;;29.25;;
62997;SDS011;55949;52.590;7.330;2023-05-14T02:50:18;30.42;;;27.70;;
62997;SDS011;55949;52.590;7.330;2023-05-14T02:51:19;28.38;;;25.90;;
62997;SDS011;55949;52.590;7.330;2023-05-14T02:52:20;28.83;;;26.40;;
62997;SDS011;55949;52.590;7.330;2023-05-14T02:53:21;27.45;;;25.05;;
62997;SDS011;55949;52.590;7.330;2023-05-14T02:54:21;26.55;;;23.90;;
62997;SDS011;55949;52.590;7.330;2023-05-14T02:55:22;25.85;;;23.58;;
62997;SDS011;55949;52.590;7.330;2023-05-14T02:56:25;26.98;;;24.48;;
62997;SDS011;55949;52.590;7.330;2023-05-14T02:57:26;27.60;;;25.08;;
62997;SDS011;55949;52.590;7.330;2023-05-14T02:58:26;26.92;;;24.33;;
62997;SDS011;55949;52.590;7.330;2023-05-14T02:59:27;26.42;;;23.92;;
62997;SDS011;55949;52.590;7.330;2023-05-14T03:00:29;28.27;;;25.45;;
62997;SDS011;55949;52.590;7.330;2023-05-14T03:01:29;23.63;;;21.42;;
62997;SDS011;55949;52.590;7.330;2023-05-14T03:02:30;25.33;;;23.13;;
62997;SDS011;55949;52.590;7.330;2023-05-14T03:03:31;25.92;;;23.33;;
62997;SDS011;55949;52.590;7.330;2023-05-14T03:04:32;25.98;;;23.40;;
62997;SDS011;55949;52.590;7.330;2023-05-14T03:05:32;26.52;;;23.98;;
62997;SDS011;55949;52.590;7.330;2023-05-14T03:06:33;29.08;;;26.52;;
62997;SDS011;55949;52.590;7.330;2023-05-14T03:07:34;30.85;;;28.15;;
62997;SDS011;55949;52.590;7.330;2023-05-14T03:08:35;28.33;;;25.58;;
62997;SDS011;55949;52.590;7.330;2023-05-14T03:09:35;30.95;;;28.25;;
62997;SDS011;55949;52.590;7.330;2023-05-14T03:10:36;30.92;;;28.30;;
62997;SDS011;55949;52.590;7.330;2023-05-14T03:11:37;32.85;;;30.25;;
62997;SDS011;55949;52.590;7.330;2023-05-14T03:12:37;38.75;;;35.00;;
62997;SDS011;55949;52.590;7.330;2023-05-14T03:13:38;37.45;;;34.65;;
62997;SDS011;55949;52.590;7.330;2023-05-14T03:14:39;38.05;;;35.20;;
62997;SDS011;55949;52.590;7.330;2023-05-14T03:15:39;41.15;;;38.28;;
62997;SDS011;55949;52.590;7.330;2023-05-14T03:16:40;48.22;;;44.70;;
62997;SDS011;55949;52.590;7.330;2023-05-14T03:17:41;48.17;;;44.50;;
62997;SDS011;55949;52.590;7.330;2023-05-14T03:18:41;52.83;;;48.80;;
62997;SDS011;55949;52.590;7.330;2023-05-14T03:19:42;52.28;;;48.30;;
62997;SDS011;55949;52.590;7.330;2023-05-14T03:20:43;53.50;;;49.75;;
62997;SDS011;55949;52.590;7.330;2023-05-14T03:21:43;51.17;;;47.08;;
62997;SDS011;55949;52.590;7.330;2023-05-14T03:22:44;54.80;;;50.70;;
62997;SDS011;55949;52.590;7.330;2023-05-14T03:23:45;50.70;;;46.80;;
62997;SDS011;55949;52.590;7.330;2023-05-14T03:24:46;48.42;;;44.35;;
62997;SDS011;55949;52.590;7.330;2023-05-14T03:25:46;42.80;;;39.47;;
62997;SDS011;55949;52.590;7.330;2023-05-14T03:26:47;43.50;;;39.83;;
62997;SDS011;55949;52.590;7.330;2023-05-14T03:27:48;42.83;;;39.47;;
62997;SDS011;55949;52.590;7.330;2023-05-14T03:28:48;39.40;;;36.33;;
62997;SDS011;55949;52.590;7.330;2023-05-14T03:29:49;39.78;;;36.63;;
62997;SDS011;55949;52.590;7.330;2023-05-14T03:30:50;40.83;;;37.70;;
62997;SDS011;55949;52.590;7.330;2023-05-14T03:31:51;42.65;;;39.50;;
62997;SDS011;55949;52.590;7.330;2023-05-14T03:32:53;36.38;;;33.30;;
62997;SDS011;55949;52.590;7.330;2023-05-14T03:33:54;34.42;;;31.75;;
62997;SDS011;55949;52.590;7.330;2023-05-14T03:34:54;38.53;;;35.45;;
62997;SDS011;55949;52.590;7.330;2023-05-14T03:35:55;39.50;;;36.42;;
62997;SDS011;55949;52.590;7.330;2023-05-14T03:36:56;39.05;;;35.90;;
62997;SDS011;55949;52.590;7.330;2023-05-14T03:37:56;38.13;;;34.95;;
62997;SDS011;55949;52.590;7.330;2023-05-14T03:38:58;33.63;;;31.00;;
62997;SDS011;55949;52.590;7.330;2023-05-14T03:39:58;34.50;;;31.67;;
62997;SDS011;55949;52.590;7.330;2023-05-14T03:40:59;30.40;;;27.90;;
62997;SDS011;55949;52.590;7.330;2023-05-14T03:42:00;32.80;;;29.90;;
62997;SDS011;55949;52.590;7.330;2023-05-14T03:43:01;30.42;;;27.25;;
62997;SDS011;55949;52.590;7.330;2023-05-14T03:44:01;31.48;;;28.75;;
62997;SDS011;55949;52.590;7.330;2023-05-14T03:45:02;27.20;;;24.77;;
62997;SDS011;55949;52.590;7.330;2023-05-14T03:46:03;27.88;;;25.70;;
62997;SDS011;55949;52.590;7.330;2023-05-14T03:47:04;26.73;;;24.58;;
62997;SDS011;55949;52.590;7.330;2023-05-14T03:48:04;30.80;;;27.88;;
62997;SDS011;55949;52.590;7.330;2023-05-14T03:49:05;28.70;;;26.17;;
62997;SDS011;55949;52.590;7.330;2023-05-14T03:50:07;30.35;;;27.85;;
62997;SDS011;55949;52.590;7.330;2023-05-14T03:51:08;33.67;;;30.70;;
62997;SDS011;55949;52.590;7.330;2023-05-14T03:52:08;32.33;;;29.63;;
62997;SDS011;55949;52.590;7.330;2023-05-14T03:53:09;34.08;;;31.08;;
62997;SDS011;55949;52.590;7.330;2023-05-14T03:54:10;32.35;;;29.75;;
62997;SDS011;55949;52.590;7.330;2023-05-14T03:55:11;32.95;;;30.38;;
62997;SDS011;55949;52.590;7.330;2023-05-14T03:56:12;33.42;;;30.55;;
62997;SDS011;55949;52.590;7.330;2023-05-14T03:57:12;29.05;;;26.38;;
62997;SDS011;55949;52.590;7.330;2023-05-14T03:58:13;30.88;;;28.13;;
62997;SDS011;55949;52.590;7.330;2023-05-14T03:59:14;29.20;;;26.75;;
62997;SDS011;55949;52.590;7.330;2023-05-14T04:00:14;32.28;;;29.48;;
62997;SDS011;55949;52.590;7.330;2023-05-14T04:01:15;30.83;;;28.42;;
62997;SDS011;55949;52.590;7.330;2023-05-14T04:02:16;29.40;;;26.73;;
62997;SDS011;55949;52.590;7.330;2023-05-14T04:03:17;29.00;;;25.33;;
62997;SDS011;55949;52.590;7.330;2023-05-14T04:04:17;28.13;;;25.70;;
62997;SDS011;55949;52.590;7.330;2023-05-14T04:05:18;28.98;;;26.50;;
62997;SDS011;55949;52.590;7.330;2023-05-14T04:06:19;29.77;;;26.95;;
62997;SDS011;55949;52.590;7.330;2023-05-14T04:07:20;30.35;;;27.65;;
62997;SDS011;55949;52.590;7.330;2023-05-14T04:08:20;31.48;;;28.67;;
62997;SDS011;55949;52.590;7.330;2023-05-14T04:09:23;32.55;;;29.58;;
62997;SDS011;55949;52.590;7.330;2023-05-14T04:10:24;32.03;;;29.33;;
62997;SDS011;55949;52.590;7.330;2023-05-14T04:11:25;38.92;;;36.00;;
62997;SDS011;55949;52.590;7.330;2023-05-14T04:12:25;30.92;;;28.40;;
62997;SDS011;55949;52.590;7.330;2023-05-14T04:13:26;32.50;;;29.63;;
62997;SDS011;55949;52.590;7.330;2023-05-14T04:14:27;27.90;;;25.55;;
62997;SDS011;55949;52.590;7.330;2023-05-14T04:15:27;25.92;;;23.70;;
62997;SDS011;55949;52.590;7.330;2023-05-14T04:16:28;27.38;;;24.75;;
62997;SDS011;55949;52.590;7.330;2023-05-14T04:17:29;27.40;;;24.90;;
62997;SDS011;55949;52.590;7.330;2023-05-14T04:18:29;30.42;;;27.90;;
62997;SDS011;55949;52.590;7.330;2023-05-14T04:19:33;30.58;;;27.98;;
62997;SDS011;55949;52.590;7.330;2023-05-14T04:20:34;31.38;;;28.50;;
62997;SDS011;55949;52.590;7.330;2023-05-14T04:21:35;33.75;;;31.13;;
62997;SDS011;55949;52.590;7.330;2023-05-14T04:22:36;31.10;;;28.35;;
62997;SDS011;55949;52.590;7.330;2023-05-14T04:23:37;33.28;;;30.35;;
62997;SDS011;55949;52.590;7.330;2023-05-14T04:24:37;32.25;;;29.45;;
62997;SDS011;55949;52.590;7.330;2023-05-14T04:25:38;30.80;;;28.35;;
62997;SDS011;55949;52.590;7.330;2023-05-14T04:26:39;31.50;;;28.92;;
62997;SDS011;55949;52.590;7.330;2023-05-14T04:27:39;28.02;;;25.63;;
62997;SDS011;55949;52.590;7.330;2023-05-14T04:28:40;29.02;;;26.27;;
62997;SDS011;55949;52.590;7.330;2023-05-14T04:29:41;27.00;;;24.60;;
62997;SDS011;55949;52.590;7.330;2023-05-14T04:30:41;28.77;;;26.33;;
62997;SDS011;55949;52.590;7.330;2023-05-14T04:31:42;28.38;;;25.98;;
62997;SDS011;55949;52.590;7.330;2023-05-14T04:32:43;24.58;;;22.30;;
62997;SDS011;55949;52.590;7.330;2023-05-14T04:33:44;27.27;;;24.52;;
62997;SDS011;55949;52.590;7.330;2023-05-14T04:34:45;26.65;;;24.33;;
62997;SDS011;55949;52.590;7.330;2023-05-14T04:35:46;29.58;;;26.75;;
62997;SDS011;55949;52.590;7.330;2023-05-14T04:36:47;27.45;;;24.80;;
62997;SDS011;55949;52.590;7.330;2023-05-14T04:37:48;27.52;;;24.77;;
62997;SDS011;55949;52.590;7.330;2023-05-14T04:38:48;28.83;;;26.17;;
62997;SDS011;55949;52.590;7.330;2023-05-14T04:39:49;29.88;;;27.20;;
62997;SDS011;55949;52.590;7.330;2023-05-14T04:40:50;35.13;;;31.85;;
62997;SDS011;55949;52.590;7.330;2023-05-14T04:41:51;35.95;;;33.08;;
62997;SDS011;55949;52.590;7.330;2023-05-14T04:42:51;39.03;;;35.97;;
62997;SDS011;55949;52.590;7.330;2023-05-14T04:43:54;39.65;;;36.28;;
62997;SDS011;55949;52.590;7.330;2023-05-14T04:44:55;37.40;;;34.20;;
62997;SDS011;55949;52.590;7.330;2023-05-14T04:45:56;38.33;;;35.33;;
62997;SDS011;55949;52.590;7.330;2023-05-14T04:46:57;38.20;;;34.97;;
62997;SDS011;55949;52.590;7.330;2023-05-14T04:47:58;37.47;;;34.35;;
62997;SDS011;55949;52.590;7.330;2023-05-14T04:48:59;38.00;;;34.83;;
62997;SDS011;55949;52.590;7.330;2023-05-14T04:49:59;35.28;;;32.60;;
62997;SDS011;55949;52.590;7.330;2023-05-14T04:51:00;29.20;;;26.50;;
62997;SDS011;55949;52.590;7.330;2023-05-14T04:52:01;29.98;;;27.05;;
62997;SDS011;55949;52.590;7.330;2023-05-14T04:53:01;32.08;;;29.05;;
62997;SDS011;55949;52.590;7.330;2023-05-14T04:54:02;34.78;;;32.00;;
62997;SDS011;55949;52.590;7.330;2023-05-14T04:55:03;30.45;;;27.70;;
62997;SDS011;55949;52.590;7.330;2023-05-14T04:56:05;28.73;;;25.95;;
62997;SDS011;55949;52.590;7.330;2023-05-14T04:57:05;29.25;;;26.10;;
62997;SDS011;55949;52.590;7.330;2023-05-14T04:58:06;28.05;;;25.10;;
62997;SDS011;55949;52.590;7.330;2023-05-14T04:59:07;29.55;;;26.60;;
62997;SDS011;55949;52.590;7.330;2023-05-14T05:00:08;31.38;;;28.70;;
62997;SDS011;55949;52.590;7.330;2023-05-14T05:01:10;35.47;;;32.55;;
62997;SDS011;55949;52.590;7.330;2023-05-14T05:02:11;28.42;;;25.77;;
62997;SDS011;55949;52.590;7.330;2023-05-14T05:03:11;28.15;;;25.63;;
62997;SDS011;55949;52.590;7.330;2023-05-14T05:04:12;29.48;;;26.77;;
62997;SDS011;55949;52.590;7.330;2023-05-14T05:05:13;26.67;;;24.27;;
62997;SDS011;55949;52.590;7.330;2023-05-14T05:06:13;26.45;;;24.02;;
62997;SDS011;55949;52.590;7.330;2023-05-14T05:07:14;28.75;;;26.05;;
62997;SDS011;55949;52.590;7.330;2023-05-14T05:08:15;27.50;;;25.05;;
62997;SDS011;55949;52.590;7.330;2023-05-14T05:09:16;29.50;;;26.65;;
62997;SDS011;55949;52.590;7.330;2023-05-14T05:10:17;31.55;;;28.75;;
62997;SDS011;55949;52.590;7.330;2023-05-14T05:11:18;30.92;;;28.33;;
62997;SDS011;55949;52.590;7.330;2023-05-14T05:12:19;31.02;;;27.92;;
62997;SDS011;55949;52.590;7.330;2023-05-14T05:13:20;28.90;;;26.10;;
62997;SDS011;55949;52.590;7.330;2023-05-14T05:14:21;31.08;;;27.92;;
62997;SDS011;55949;52.590;7.330;2023-05-14T05:15:21;27.85;;;25.25;;
62997;SDS011;55949;52.590;7.330;2023-05-14T05:16:22;25.88;;;23.23;;
62997;SDS011;55949;52.590;7.330;2023-05-14T05:17:23;25.13;;;22.38;;
62997;SDS011;55949;52.590;7.330;2023-05-14T05:18:24;26.27;;;23.50;;
62997;SDS011;55949;52.590;7.330;2023-05-14T05:19:24;25.30;;;22.95;;
62997;SDS011;55949;52.590;7.330;2023-05-14T05:20:25;25.42;;;22.70;;
62997;SDS011;55949;52.590;7.330;2023-05-14T05:21:27;25.70;;;23.23;;
62997;SDS011;55949;52.590;7.330;2023-05-14T05:22:28;25.88;;;23.20;;
62997;SDS011;55949;52.590;7.330;2023-05-14T05:23:28;30.38;;;24.75;;
62997;SDS011;55949;52.590;7.330;2023-05-14T05:24:29;30.35;;;25.60;;
62997;SDS011;55949;52.590;7.330;2023-05-14T05:25:30;27.05;;;24.30;;
62997;SDS011;55949;52.590;7.330;2023-05-14T05:26:31;26.25;;;23.60;;
62997;SDS011;55949;52.590;7.330;2023-05-14T05:27:32;29.95;;;27.20;;
62997;SDS011;55949;52.590;7.330;2023-05-14T05:28:32;32.00;;;28.90;;
62997;SDS011;55949;52.590;7.330;2023-05-14T05:29:33;33.20;;;30.38;;
62997;SDS011;55949;52.590;7.330;2023-05-14T05:30:34;30.38;;;27.55;;
62997;SDS011;55949;52.590;7.330;2023-05-14T05:31:34;30.92;;;28.15;;
62997;SDS011;55949;52.590;7.330;2023-05-14T05:32:35;33.67;;;30.77;;
62997;SDS011;55949;52.590;7.330;2023-05-14T05:33:36;29.35;;;26.85;;
62997;SDS011;55949;52.590;7.330;2023-05-14T05:34:37;27.58;;;25.08;;
62997;SDS011;55949;52.590;7.330;2023-05-14T05:35:38;26.65;;;23.60;;
62997;SDS011;55949;52.590;7.330;2023-05-14T05:36:39;26.58;;;23.98;;
62997;SDS011;55949;52.590;7.330;2023-05-14T05:37:41;29.90;;;26.98;;
62997;SDS011;55949;52.590;7.330;2023-05-14T05:38:42;32.15;;;29.17;;
62997;SDS011;55949;52.590;7.330;2023-05-14T05:39:42;32.05;;;29.35;;
62997;SDS011;55949;52.590;7.330;2023-05-14T05:40:43;36.75;;;33.25;;
62997;SDS011;55949;52.590;7.330;2023-05-14T05:41:44;36.70;;;33.42;;
62997;SDS011;55949;52.590;7.330;2023-05-14T05:42:44;34.53;;;31.67;;
62997;SDS011;55949;52.590;7.330;2023-05-14T05:43:45;33.53;;;30.52;;
62997;SDS011;55949;52.590;7.330;2023-05-14T05:44:46;35.30;;;32.30;;
62997;SDS011;55949;52.590;7.330;2023-05-14T05:45:46;36.65;;;33.53;;
62997;SDS011;55949;52.590;7.330;2023-05-14T05:46:47;44.78;;;41.38;;
62997;SDS011;55949;52.590;7.330;2023-05-14T05:47:47;46.03;;;42.45;;
62997;SDS011;55949;52.590;7.330;2023-05-14T05:48:48;37.33;;;34.10;;
62997;SDS011;55949;52.590;7.330;2023-05-14T05:49:49;36.53;;;33.50;;
62997;SDS011;55949;52.590;7.330;2023-05-14T05:50:49;38.13;;;34.72;;
62997;SDS011;55949;52.590;7.330;2023-05-14T05:51:51;44.65;;;41.00;;
62997;SDS011;55949;52.590;7.330;2023-05-14T05:52:52;39.50;;;35.97;;
62997;SDS011;55949;52.590;7.330;2023-05-14T05:53:52;31.77;;;29.02;;
62997;SDS011;55949;52.590;7.330;2023-05-14T05:54:53;33.45;;;30.52;;
62997;SDS011;55949;52.590;7.330;2023-05-14T05:55:54;35.85;;;32.72;;
62997;SDS011;55949;52.590;7.330;2023-05-14T05:56:54;36.78;;;33.60;;
62997;SDS011;55949;52.590;7.330;2023-05-14T05:57:55;37.42;;;34.05;;
62997;SDS011;55949;52.590;7.330;2023-05-14T05:58:56;32.38;;;29.02;;
62997;SDS011;55949;52.590;7.330;2023-05-14T05:59:56;32.63;;;29.95;;
62997;SDS011;55949;52.590;7.330;2023-05-14T06:00:57;37.28;;;34.15;;
62997;SDS011;55949;52.590;7.330;2023-05-14T06:01:58;36.42;;;33.55;;
62997;SDS011;55949;52.590;7.330;2023-05-14T06:02:59;34.30;;;31.15;;
62997;SDS011;55949;52.590;7.330;2023-05-14T06:04:00;30.65;;;28.05;;